sensor_id;sensor_type;location;lat;lon;timestamp;P1;durP1;ratioP1;P2;durP2;ratioP2
9270;SDS011;4673;53.458;9.940;2022-12-10T00:00:38;25.87;;;25.57;;
9270;SDS011;4673;53.458;9.940;2022-12-10T00:03:04;24.53;;;24.23;;
9270;SDS011;4673;53.458;9.940;2022-12-10T00:05:29;21.80;;;21.60;;
9270;SDS011;4673;53.458;9.940;2022-12-10T00:07:58;25.10;;;24.80;;
9270;SDS011;4673;53.458;9.940;2022-12-10T00:10:23;24.90;;;24.60;;
9270;SDS011;4673;53.458;9.940;2022-12-10T00:12:49;26.13;;;25.83;;
9270;SDS011;4673;53.458;9.940;2022-12-10T00:15:14;21.57;;;21.37;;
9270;SDS011;4673;53.458;9.940;2022-12-10T00:17:41;22.67;;;22.43;;
9270;SDS011;4673;53.458;9.940;2022-12-10T00:20:07;22.73;;;22.53;;
9270;SDS011;4673;53.458;9.940;2022-12-10T00:22:33;22.73;;;22.47;;
9270;SDS011;4673;53.458;9.940;2022-12-10T00:24:59;20.83;;;20.63;;
9270;SDS011;4673;53.458;9.940;2022-12-10T00:27:25;20.23;;;20.03;;
9270;SDS011;4673;53.458;9.940;2022-12-10T00:29:50;20.10;;;19.90;;
9270;SDS011;4673;53.458;9.940;2022-12-10T00:32:16;20.70;;;20.50;;
9270;SDS011;4673;53.458;9.940;2022-12-10T00:34:42;20.60;;;20.40;;
9270;SDS011;4673;53.458;9.940;2022-12-10T00:37:07;20.70;;;20.50;;
9270;SDS011;4673;53.458;9.940;2022-12-10T00:39:33;20.97;;;20.77;;
9270;SDS011;4673;53.458;9.940;2022-12-10T00:41:59;21.40;;;21.20;;
9270;SDS011;4673;53.458;9.940;2022-12-10T00:44:24;23.23;;;23.03;;
9270;SDS011;4673;53.458;9.940;2022-12-10T00:46:50;20.83;;;20.63;;
9270;SDS011;4673;53.458;9.940;2022-12-10T00:49:15;21.03;;;20.83;;
9270;SDS011;4673;53.458;9.940;2022-12-10T00:51:41;19.47;;;19.27;;
9270;SDS011;4673;53.458;9.940;2022-12-10T00:54:07;19.63;;;19.43;;
9270;SDS011;4673;53.458;9.940;2022-12-10T00:56:33;20.60;;;20.40;;
9270;SDS011;4673;53.458;9.940;2022-12-10T00:58:59;19.27;;;19.07;;
9270;SDS011;4673;53.458;9.940;2022-12-10T01:01:34;19.17;;;18.97;;
9270;SDS011;4673;53.458;9.940;2022-12-10T01:04:04;17.27;;;17.07;;
9270;SDS011;4673;53.458;9.940;2022-12-10T01:06:32;16.90;;;16.70;;
9270;SDS011;4673;53.458;9.940;2022-12-10T01:09:02;17.93;;;17.83;;
9270;SDS011;4673;53.458;9.940;2022-12-10T01:11:34;17.63;;;17.43;;
9270;SDS011;4673;53.458;9.940;2022-12-10T01:14:02;17.93;;;17.73;;
9270;SDS011;4673;53.458;9.940;2022-12-10T01:16:28;18.93;;;18.73;;
9270;SDS011;4673;53.458;9.940;2022-12-10T01:18:57;16.90;;;16.80;;
9270;SDS011;4673;53.458;9.940;2022-12-10T01:21:24;19.03;;;18.83;;
9270;SDS011;4673;53.458;9.940;2022-12-10T01:23:51;16.33;;;16.23;;
9270;SDS011;4673;53.458;9.940;2022-12-10T01:26:18;18.83;;;18.63;;
9270;SDS011;4673;53.458;9.940;2022-12-10T01:28:46;17.07;;;16.97;;
9270;SDS011;4673;53.458;9.940;2022-12-10T01:31:14;17.27;;;17.07;;
9270;SDS011;4673;53.458;9.940;2022-12-10T01:33:44;17.53;;;17.33;;
9270;SDS011;4673;53.458;9.940;2022-12-10T01:36:12;17.63;;;17.53;;
9270;SDS011;4673;53.458;9.940;2022-12-10T01:38:39;16.30;;;16.17;;
9270;SDS011;4673;53.458;9.940;2022-12-10T01:41:06;16.30;;;16.20;;
9270;SDS011;4673;53.458;9.940;2022-12-10T01:43:55;16.00;;;15.90;;
9270;SDS011;4673;53.458;9.940;2022-12-10T01:46:21;16.97;;;16.77;;
9270;SDS011;4673;53.458;9.940;2022-12-10T01:48:48;16.33;;;16.23;;
9270;SDS011;4673;53.458;9.940;2022-12-10T01:51:15;14.73;;;14.63;;
9270;SDS011;4673;53.458;9.940;2022-12-10T01:53:41;16.07;;;15.97;;
9270;SDS011;4673;53.458;9.940;2022-12-10T01:56:09;16.63;;;16.53;;
9270;SDS011;4673;53.458;9.940;2022-12-10T01:58:36;15.87;;;15.77;;
9270;SDS011;4673;53.458;9.940;2022-12-10T02:01:07;15.90;;;15.80;;
9270;SDS011;4673;53.458;9.940;2022-12-10T02:06:31;15.87;;;15.77;;
9270;SDS011;4673;53.458;9.940;2022-12-10T02:09:16;14.87;;;14.77;;
9270;SDS011;4673;53.458;9.940;2022-12-10T02:11:48;16.60;;;16.50;;
9270;SDS011;4673;53.458;9.940;2022-12-10T02:14:29;15.10;;;15.00;;
9270;SDS011;4673;53.458;9.940;2022-12-10T02:17:06;14.67;;;14.57;;
9270;SDS011;4673;53.458;9.940;2022-12-10T02:22:16;14.53;;;14.43;;
9270;SDS011;4673;53.458;9.940;2022-12-10T02:24:44;16.40;;;16.30;;
9270;SDS011;4673;53.458;9.940;2022-12-10T02:30:04;14.73;;;14.63;;
9270;SDS011;4673;53.458;9.940;2022-12-10T02:32:35;14.23;;;14.13;;
9270;SDS011;4673;53.458;9.940;2022-12-10T02:35:06;15.53;;;15.43;;
9270;SDS011;4673;53.458;9.940;2022-12-10T02:37:38;15.10;;;15.00;;
9270;SDS011;4673;53.458;9.940;2022-12-10T02:40:11;15.60;;;15.50;;
9270;SDS011;4673;53.458;9.940;2022-12-10T02:42:42;14.80;;;14.70;;
9270;SDS011;4673;53.458;9.940;2022-12-10T02:45:12;15.47;;;15.37;;
9270;SDS011;4673;53.458;9.940;2022-12-10T02:47:38;14.70;;;14.60;;
9270;SDS011;4673;53.458;9.940;2022-12-10T02:50:06;14.37;;;14.27;;
9270;SDS011;4673;53.458;9.940;2022-12-10T02:52:34;15.40;;;15.30;;
9270;SDS011;4673;53.458;9.940;2022-12-10T02:55:00;13.33;;;13.23;;
9270;SDS011;4673;53.458;9.940;2022-12-10T02:57:31;15.13;;;15.03;;
9270;SDS011;4673;53.458;9.940;2022-12-10T03:03:05;14.83;;;14.73;;
9270;SDS011;4673;53.458;9.940;2022-12-10T03:08:28;13.77;;;13.67;;
9270;SDS011;4673;53.458;9.940;2022-12-10T03:11:01;15.00;;;14.90;;
9270;SDS011;4673;53.458;9.940;2022-12-10T03:13:43;14.17;;;14.07;;
9270;SDS011;4673;53.458;9.940;2022-12-10T03:16:24;14.90;;;14.80;;
9270;SDS011;4673;53.458;9.940;2022-12-10T03:18:56;13.63;;;13.53;;
9270;SDS011;4673;53.458;9.940;2022-12-10T03:21:24;14.23;;;14.13;;
9270;SDS011;4673;53.458;9.940;2022-12-10T03:23:53;13.87;;;13.77;;
9270;SDS011;4673;53.458;9.940;2022-12-10T03:26:19;13.40;;;13.30;;
9270;SDS011;4673;53.458;9.940;2022-12-10T03:28:51;14.20;;;14.10;;
9270;SDS011;4673;53.458;9.940;2022-12-10T03:31:21;15.00;;;14.90;;
9270;SDS011;4673;53.458;9.940;2022-12-10T03:33:46;14.00;;;13.90;;
9270;SDS011;4673;53.458;9.940;2022-12-10T03:36:13;14.87;;;14.77;;
9270;SDS011;4673;53.458;9.940;2022-12-10T03:38:41;14.77;;;14.67;;
9270;SDS011;4673;53.458;9.940;2022-12-10T03:41:08;14.13;;;14.03;;
9270;SDS011;4673;53.458;9.940;2022-12-10T03:43:34;12.87;;;12.77;;
9270;SDS011;4673;53.458;9.940;2022-12-10T03:46:00;14.17;;;14.07;;
9270;SDS011;4673;53.458;9.940;2022-12-10T03:48:26;12.83;;;12.73;;
9270;SDS011;4673;53.458;9.940;2022-12-10T03:50:52;13.73;;;13.63;;
9270;SDS011;4673;53.458;9.940;2022-12-10T03:53:18;12.53;;;12.43;;
9270;SDS011;4673;53.458;9.940;2022-12-10T03:55:43;13.10;;;13.00;;
9270;SDS011;4673;53.458;9.940;2022-12-10T03:58:09;13.43;;;13.33;;
9270;SDS011;4673;53.458;9.940;2022-12-10T04:00:35;13.40;;;13.30;;
9270;SDS011;4673;53.458;9.940;2022-12-10T04:03:00;13.37;;;13.27;;
9270;SDS011;4673;53.458;9.940;2022-12-10T04:05:26;14.70;;;14.60;;
9270;SDS011;4673;53.458;9.940;2022-12-10T04:07:51;11.60;;;11.50;;
9270;SDS011;4673;53.458;9.940;2022-12-10T04:10:17;10.73;;;10.63;;
9270;SDS011;4673;53.458;9.940;2022-12-10T04:12:43;11.50;;;11.40;;
9270;SDS011;4673;53.458;9.940;2022-12-10T04:15:28;11.53;;;11.43;;
9270;SDS011;4673;53.458;9.940;2022-12-10T04:18:12;11.63;;;11.53;;
9270;SDS011;4673;53.458;9.940;2022-12-10T04:20:38;11.17;;;11.07;;
9270;SDS011;4673;53.458;9.940;2022-12-10T04:23:22;10.47;;;10.37;;
9270;SDS011;4673;53.458;9.940;2022-12-10T04:26:06;10.47;;;10.37;;
9270;SDS011;4673;53.458;9.940;2022-12-10T04:28:51;10.63;;;10.53;;
9270;SDS011;4673;53.458;9.940;2022-12-10T04:31:16;10.27;;;10.17;;
9270;SDS011;4673;53.458;9.940;2022-12-10T04:33:42;10.43;;;10.43;;
9270;SDS011;4673;53.458;9.940;2022-12-10T04:36:07;10.00;;;10.00;;
9270;SDS011;4673;53.458;9.940;2022-12-10T04:38:33;10.90;;;10.80;;
9270;SDS011;4673;53.458;9.940;2022-12-10T04:40:59;9.40;;;9.40;;
9270;SDS011;4673;53.458;9.940;2022-12-10T04:43:24;10.03;;;10.03;;
9270;SDS011;4673;53.458;9.940;2022-12-10T04:45:55;10.67;;;10.57;;
9270;SDS011;4673;53.458;9.940;2022-12-10T04:48:21;8.87;;;8.87;;
9270;SDS011;4673;53.458;9.940;2022-12-10T04:50:46;9.97;;;9.97;;
9270;SDS011;4673;53.458;9.940;2022-12-10T04:53:12;10.03;;;10.03;;
9270;SDS011;4673;53.458;9.940;2022-12-10T04:55:38;9.57;;;9.57;;
9270;SDS011;4673;53.458;9.940;2022-12-10T04:58:03;8.23;;;8.23;;
9270;SDS011;4673;53.458;9.940;2022-12-10T05:00:29;8.97;;;8.97;;
9270;SDS011;4673;53.458;9.940;2022-12-10T05:02:54;9.20;;;9.20;;
9270;SDS011;4673;53.458;9.940;2022-12-10T05:05:20;9.30;;;9.30;;
9270;SDS011;4673;53.458;9.940;2022-12-10T05:07:46;8.20;;;8.20;;
9270;SDS011;4673;53.458;9.940;2022-12-10T05:10:11;9.23;;;9.23;;
9270;SDS011;4673;53.458;9.940;2022-12-10T05:12:37;8.67;;;8.67;;
9270;SDS011;4673;53.458;9.940;2022-12-10T05:15:02;8.37;;;8.37;;
9270;SDS011;4673;53.458;9.940;2022-12-10T05:17:28;9.20;;;9.20;;
9270;SDS011;4673;53.458;9.940;2022-12-10T05:19:54;8.13;;;8.13;;
9270;SDS011;4673;53.458;9.940;2022-12-10T05:22:19;7.83;;;7.83;;
9270;SDS011;4673;53.458;9.940;2022-12-10T05:25:03;9.30;;;9.30;;
9270;SDS011;4673;53.458;9.940;2022-12-10T05:27:31;8.43;;;8.43;;
9270;SDS011;4673;53.458;9.940;2022-12-10T05:29:57;8.17;;;8.17;;
9270;SDS011;4673;53.458;9.940;2022-12-10T05:32:23;8.90;;;8.90;;
9270;SDS011;4673;53.458;9.940;2022-12-10T05:34:48;8.10;;;8.10;;
9270;SDS011;4673;53.458;9.940;2022-12-10T05:37:14;7.80;;;7.80;;
9270;SDS011;4673;53.458;9.940;2022-12-10T05:39:40;8.03;;;8.03;;
9270;SDS011;4673;53.458;9.940;2022-12-10T05:42:05;9.73;;;9.73;;
9270;SDS011;4673;53.458;9.940;2022-12-10T05:44:31;9.67;;;9.67;;
9270;SDS011;4673;53.458;9.940;2022-12-10T05:46:57;7.00;;;7.00;;
9270;SDS011;4673;53.458;9.940;2022-12-10T05:49:22;8.33;;;8.33;;
9270;SDS011;4673;53.458;9.940;2022-12-10T05:51:48;8.10;;;8.10;;
9270;SDS011;4673;53.458;9.940;2022-12-10T05:54:13;7.67;;;7.67;;
9270;SDS011;4673;53.458;9.940;2022-12-10T05:56:39;7.90;;;7.90;;
9270;SDS011;4673;53.458;9.940;2022-12-10T05:59:05;7.10;;;7.10;;
9270;SDS011;4673;53.458;9.940;2022-12-10T06:01:32;8.23;;;8.23;;
9270;SDS011;4673;53.458;9.940;2022-12-10T06:04:00;7.70;;;7.70;;
9270;SDS011;4673;53.458;9.940;2022-12-10T06:06:28;7.67;;;7.67;;
9270;SDS011;4673;53.458;9.940;2022-12-10T06:09:02;8.77;;;8.77;;
9270;SDS011;4673;53.458;9.940;2022-12-10T06:11:28;7.40;;;7.40;;
9270;SDS011;4673;53.458;9.940;2022-12-10T06:13:55;7.73;;;7.73;;
9270;SDS011;4673;53.458;9.940;2022-12-10T06:16:22;8.17;;;8.17;;
9270;SDS011;4673;53.458;9.940;2022-12-10T06:18:49;9.57;;;9.57;;
9270;SDS011;4673;53.458;9.940;2022-12-10T06:21:16;8.33;;;8.33;;
9270;SDS011;4673;53.458;9.940;2022-12-10T06:23:42;8.17;;;8.17;;
9270;SDS011;4673;53.458;9.940;2022-12-10T06:26:10;8.47;;;8.47;;
9270;SDS011;4673;53.458;9.940;2022-12-10T06:28:37;8.50;;;8.50;;
9270;SDS011;4673;53.458;9.940;2022-12-10T06:31:04;8.70;;;8.70;;
9270;SDS011;4673;53.458;9.940;2022-12-10T06:33:30;7.53;;;7.53;;
9270;SDS011;4673;53.458;9.940;2022-12-10T06:35:55;6.87;;;6.87;;
9270;SDS011;4673;53.458;9.940;2022-12-10T06:38:21;7.20;;;7.20;;
9270;SDS011;4673;53.458;9.940;2022-12-10T06:40:47;6.90;;;6.90;;
9270;SDS011;4673;53.458;9.940;2022-12-10T06:43:13;8.33;;;8.33;;
9270;SDS011;4673;53.458;9.940;2022-12-10T06:45:39;7.97;;;7.97;;
9270;SDS011;4673;53.458;9.940;2022-12-10T06:48:05;7.27;;;7.27;;
9270;SDS011;4673;53.458;9.940;2022-12-10T06:50:31;6.87;;;6.87;;
9270;SDS011;4673;53.458;9.940;2022-12-10T06:52:57;7.53;;;7.53;;
9270;SDS011;4673;53.458;9.940;2022-12-10T06:55:22;7.27;;;7.27;;
9270;SDS011;4673;53.458;9.940;2022-12-10T06:57:51;8.00;;;8.00;;
9270;SDS011;4673;53.458;9.940;2022-12-10T07:00:18;7.43;;;7.43;;
9270;SDS011;4673;53.458;9.940;2022-12-10T07:02:44;8.00;;;8.00;;
9270;SDS011;4673;53.458;9.940;2022-12-10T07:05:10;7.63;;;7.60;;
9270;SDS011;4673;53.458;9.940;2022-12-10T07:07:36;7.10;;;7.10;;
9270;SDS011;4673;53.458;9.940;2022-12-10T07:10:02;6.83;;;6.83;;
9270;SDS011;4673;53.458;9.940;2022-12-10T07:12:28;6.77;;;6.77;;
9270;SDS011;4673;53.458;9.940;2022-12-10T07:14:53;7.73;;;7.73;;
9270;SDS011;4673;53.458;9.940;2022-12-10T07:17:19;7.57;;;7.57;;
9270;SDS011;4673;53.458;9.940;2022-12-10T07:19:45;7.20;;;7.20;;
9270;SDS011;4673;53.458;9.940;2022-12-10T07:22:10;9.00;;;9.00;;
9270;SDS011;4673;53.458;9.940;2022-12-10T07:24:36;7.37;;;7.37;;
9270;SDS011;4673;53.458;9.940;2022-12-10T07:27:04;7.23;;;7.23;;
9270;SDS011;4673;53.458;9.940;2022-12-10T07:29:30;7.33;;;7.33;;
9270;SDS011;4673;53.458;9.940;2022-12-10T07:31:55;7.77;;;7.77;;
9270;SDS011;4673;53.458;9.940;2022-12-10T07:34:21;7.90;;;7.90;;
9270;SDS011;4673;53.458;9.940;2022-12-10T07:36:47;8.33;;;8.33;;
9270;SDS011;4673;53.458;9.940;2022-12-10T07:39:13;8.03;;;8.03;;
9270;SDS011;4673;53.458;9.940;2022-12-10T07:41:51;7.77;;;7.77;;
9270;SDS011;4673;53.458;9.940;2022-12-10T07:44:18;8.00;;;8.00;;
9270;SDS011;4673;53.458;9.940;2022-12-10T07:46:46;6.97;;;6.97;;
9270;SDS011;4673;53.458;9.940;2022-12-10T07:49:13;7.57;;;7.57;;
9270;SDS011;4673;53.458;9.940;2022-12-10T07:51:39;7.83;;;7.83;;
9270;SDS011;4673;53.458;9.940;2022-12-10T07:54:05;6.43;;;6.43;;
9270;SDS011;4673;53.458;9.940;2022-12-10T07:56:30;9.60;;;9.60;;
9270;SDS011;4673;53.458;9.940;2022-12-10T07:58:56;8.83;;;8.83;;
9270;SDS011;4673;53.458;9.940;2022-12-10T08:01:22;7.20;;;7.20;;
9270;SDS011;4673;53.458;9.940;2022-12-10T08:03:50;8.37;;;8.37;;
9270;SDS011;4673;53.458;9.940;2022-12-10T08:06:18;7.97;;;7.97;;
9270;SDS011;4673;53.458;9.940;2022-12-10T08:08:45;6.43;;;6.43;;
9270;SDS011;4673;53.458;9.940;2022-12-10T08:11:11;7.97;;;7.97;;
9270;SDS011;4673;53.458;9.940;2022-12-10T08:13:38;6.30;;;6.30;;
9270;SDS011;4673;53.458;9.940;2022-12-10T08:18:32;7.33;;;7.33;;
9270;SDS011;4673;53.458;9.940;2022-12-10T08:21:03;7.03;;;7.03;;
9270;SDS011;4673;53.458;9.940;2022-12-10T08:23:33;6.90;;;6.90;;
9270;SDS011;4673;53.458;9.940;2022-12-10T08:26:02;6.53;;;6.53;;
9270;SDS011;4673;53.458;9.940;2022-12-10T08:28:32;6.97;;;6.97;;
9270;SDS011;4673;53.458;9.940;2022-12-10T08:30:58;7.07;;;7.07;;
9270;SDS011;4673;53.458;9.940;2022-12-10T08:33:23;6.67;;;6.67;;
9270;SDS011;4673;53.458;9.940;2022-12-10T08:35:49;6.50;;;6.50;;
9270;SDS011;4673;53.458;9.940;2022-12-10T08:38:15;8.07;;;8.07;;
9270;SDS011;4673;53.458;9.940;2022-12-10T08:40:41;6.73;;;6.73;;
9270;SDS011;4673;53.458;9.940;2022-12-10T08:43:07;6.47;;;6.47;;
9270;SDS011;4673;53.458;9.940;2022-12-10T08:45:33;6.60;;;6.60;;
9270;SDS011;4673;53.458;9.940;2022-12-10T08:47:59;5.90;;;5.90;;
9270;SDS011;4673;53.458;9.940;2022-12-10T08:50:26;5.87;;;5.87;;
9270;SDS011;4673;53.458;9.940;2022-12-10T08:52:52;8.30;;;8.30;;
9270;SDS011;4673;53.458;9.940;2022-12-10T08:55:17;7.20;;;7.20;;
9270;SDS011;4673;53.458;9.940;2022-12-10T08:57:43;7.47;;;7.47;;
9270;SDS011;4673;53.458;9.940;2022-12-10T09:00:09;7.07;;;7.07;;
9270;SDS011;4673;53.458;9.940;2022-12-10T09:02:35;6.87;;;6.87;;
9270;SDS011;4673;53.458;9.940;2022-12-10T09:05:01;7.73;;;7.73;;
9270;SDS011;4673;53.458;9.940;2022-12-10T09:07:26;5.87;;;5.87;;
9270;SDS011;4673;53.458;9.940;2022-12-10T09:09:52;6.33;;;6.33;;
9270;SDS011;4673;53.458;9.940;2022-12-10T09:12:17;6.57;;;6.57;;
9270;SDS011;4673;53.458;9.940;2022-12-10T09:14:43;5.90;;;5.90;;
9270;SDS011;4673;53.458;9.940;2022-12-10T09:17:09;7.67;;;7.67;;
9270;SDS011;4673;53.458;9.940;2022-12-10T09:19:34;6.93;;;6.93;;
9270;SDS011;4673;53.458;9.940;2022-12-10T09:22:00;6.67;;;6.67;;
9270;SDS011;4673;53.458;9.940;2022-12-10T09:24:26;7.07;;;7.07;;
9270;SDS011;4673;53.458;9.940;2022-12-10T09:26:51;7.33;;;7.33;;
9270;SDS011;4673;53.458;9.940;2022-12-10T09:29:18;7.87;;;7.87;;
9270;SDS011;4673;53.458;9.940;2022-12-10T09:31:44;6.90;;;6.90;;
9270;SDS011;4673;53.458;9.940;2022-12-10T09:34:14;7.43;;;7.43;;
9270;SDS011;4673;53.458;9.940;2022-12-10T09:36:39;6.57;;;6.57;;
9270;SDS011;4673;53.458;9.940;2022-12-10T09:39:05;7.27;;;7.27;;
9270;SDS011;4673;53.458;9.940;2022-12-10T09:41:44;6.70;;;6.70;;
9270;SDS011;4673;53.458;9.940;2022-12-10T09:47:54;6.43;;;6.43;;
9270;SDS011;4673;53.458;9.940;2022-12-10T09:50:54;6.10;;;6.10;;
9270;SDS011;4673;53.458;9.940;2022-12-10T09:53:26;6.10;;;6.10;;
9270;SDS011;4673;53.458;9.940;2022-12-10T09:55:54;7.93;;;7.93;;
9270;SDS011;4673;53.458;9.940;2022-12-10T09:58:21;7.73;;;7.73;;
9270;SDS011;4673;53.458;9.940;2022-12-10T10:00:50;7.80;;;7.80;;
9270;SDS011;4673;53.458;9.940;2022-12-10T10:03:20;8.20;;;8.20;;
9270;SDS011;4673;53.458;9.940;2022-12-10T10:05:47;7.40;;;7.40;;
9270;SDS011;4673;53.458;9.940;2022-12-10T10:08:39;7.37;;;7.37;;
9270;SDS011;4673;53.458;9.940;2022-12-10T10:11:04;7.80;;;7.80;;
9270;SDS011;4673;53.458;9.940;2022-12-10T10:16:16;7.27;;;7.27;;
9270;SDS011;4673;53.458;9.940;2022-12-10T10:18:55;5.67;;;5.67;;
9270;SDS011;4673;53.458;9.940;2022-12-10T10:21:33;6.57;;;6.57;;
9270;SDS011;4673;53.458;9.940;2022-12-10T10:24:07;5.63;;;5.63;;
9270;SDS011;4673;53.458;9.940;2022-12-10T10:26:37;6.60;;;6.60;;
9270;SDS011;4673;53.458;9.940;2022-12-10T10:29:05;6.93;;;6.93;;
9270;SDS011;4673;53.458;9.940;2022-12-10T10:31:33;7.17;;;7.17;;
9270;SDS011;4673;53.458;9.940;2022-12-10T10:34:02;7.97;;;7.97;;
9270;SDS011;4673;53.458;9.940;2022-12-10T10:36:34;5.97;;;5.97;;
9270;SDS011;4673;53.458;9.940;2022-12-10T10:41:36;6.50;;;6.50;;
9270;SDS011;4673;53.458;9.940;2022-12-10T10:44:12;7.43;;;7.43;;
9270;SDS011;4673;53.458;9.940;2022-12-10T10:46:40;6.57;;;6.57;;
9270;SDS011;4673;53.458;9.940;2022-12-10T10:49:39;6.40;;;6.40;;
9270;SDS011;4673;53.458;9.940;2022-12-10T10:52:00;6.53;;;6.53;;
9270;SDS011;4673;53.458;9.940;2022-12-10T10:54:33;6.50;;;6.50;;
9270;SDS011;4673;53.458;9.940;2022-12-10T10:57:03;6.90;;;6.90;;
9270;SDS011;4673;53.458;9.940;2022-12-10T10:59:38;5.93;;;5.93;;
9270;SDS011;4673;53.458;9.940;2022-12-10T11:02:09;6.43;;;6.43;;
9270;SDS011;4673;53.458;9.940;2022-12-10T11:04:45;6.77;;;6.77;;
9270;SDS011;4673;53.458;9.940;2022-12-10T11:07:30;7.20;;;7.20;;
9270;SDS011;4673;53.458;9.940;2022-12-10T11:10:03;6.77;;;6.77;;
9270;SDS011;4673;53.458;9.940;2022-12-10T11:12:41;6.47;;;6.47;;
9270;SDS011;4673;53.458;9.940;2022-12-10T11:17:54;7.03;;;7.03;;
9270;SDS011;4673;53.458;9.940;2022-12-10T11:20:22;7.07;;;7.07;;
9270;SDS011;4673;53.458;9.940;2022-12-10T11:23:02;6.67;;;6.67;;
9270;SDS011;4673;53.458;9.940;2022-12-10T11:30:39;7.07;;;7.07;;
9270;SDS011;4673;53.458;9.940;2022-12-10T11:41:28;7.87;;;7.87;;
9270;SDS011;4673;53.458;9.940;2022-12-10T11:46:44;7.17;;;7.17;;
9270;SDS011;4673;53.458;9.940;2022-12-10T11:55:00;7.10;;;7.10;;
9270;SDS011;4673;53.458;9.940;2022-12-10T11:58:05;7.20;;;7.20;;
9270;SDS011;4673;53.458;9.940;2022-12-10T12:01:03;6.87;;;6.87;;
9270;SDS011;4673;53.458;9.940;2022-12-10T12:03:53;7.27;;;7.27;;
9270;SDS011;4673;53.458;9.940;2022-12-10T12:14:47;7.97;;;7.97;;
9270;SDS011;4673;53.458;9.940;2022-12-10T12:17:21;7.27;;;7.27;;
9270;SDS011;4673;53.458;9.940;2022-12-10T12:22:56;7.20;;;7.20;;
9270;SDS011;4673;53.458;9.940;2022-12-10T12:25:46;7.37;;;7.37;;
9270;SDS011;4673;53.458;9.940;2022-12-10T12:31:30;7.73;;;7.73;;
9270;SDS011;4673;53.458;9.940;2022-12-10T12:34:21;8.93;;;8.93;;
9270;SDS011;4673;53.458;9.940;2022-12-10T12:36:50;9.17;;;9.17;;
9270;SDS011;4673;53.458;9.940;2022-12-10T12:39:20;8.53;;;8.53;;
9270;SDS011;4673;53.458;9.940;2022-12-10T12:45:21;8.87;;;8.87;;
9270;SDS011;4673;53.458;9.940;2022-12-10T12:50:24;11.00;;;11.00;;
9270;SDS011;4673;53.458;9.940;2022-12-10T12:53:11;11.37;;;11.27;;
9270;SDS011;4673;53.458;9.940;2022-12-10T13:04:06;10.27;;;10.27;;
9270;SDS011;4673;53.458;9.940;2022-12-10T13:06:36;9.80;;;9.80;;
9270;SDS011;4673;53.458;9.940;2022-12-10T13:20:46;9.40;;;9.37;;
9270;SDS011;4673;53.458;9.940;2022-12-10T13:23:30;10.20;;;10.13;;
9270;SDS011;4673;53.458;9.940;2022-12-10T13:25:58;8.90;;;8.90;;
9270;SDS011;4673;53.458;9.940;2022-12-10T13:36:34;9.60;;;9.60;;
9270;SDS011;4673;53.458;9.940;2022-12-10T13:51:08;8.37;;;8.37;;
9270;SDS011;4673;53.458;9.940;2022-12-10T13:55:52;9.80;;;9.70;;
9270;SDS011;4673;53.458;9.940;2022-12-10T14:04:38;9.37;;;9.37;;
9270;SDS011;4673;53.458;9.940;2022-12-10T14:07:24;8.67;;;8.67;;
9270;SDS011;4673;53.458;9.940;2022-12-10T14:09:52;9.37;;;9.37;;
9270;SDS011;4673;53.458;9.940;2022-12-10T14:14:57;9.17;;;9.17;;
9270;SDS011;4673;53.458;9.940;2022-12-10T14:17:33;9.87;;;9.87;;
9270;SDS011;4673;53.458;9.940;2022-12-10T14:20:03;9.47;;;9.47;;
9270;SDS011;4673;53.458;9.940;2022-12-10T14:22:33;9.53;;;9.43;;
9270;SDS011;4673;53.458;9.940;2022-12-10T14:25:05;9.00;;;9.00;;
9270;SDS011;4673;53.458;9.940;2022-12-10T14:27:37;9.83;;;9.83;;
9270;SDS011;4673;53.458;9.940;2022-12-10T14:30:04;9.83;;;9.73;;
9270;SDS011;4673;53.458;9.940;2022-12-10T14:32:32;8.40;;;8.40;;
9270;SDS011;4673;53.458;9.940;2022-12-10T14:35:03;8.40;;;8.40;;
9270;SDS011;4673;53.458;9.940;2022-12-10T14:37:31;8.17;;;8.17;;
9270;SDS011;4673;53.458;9.940;2022-12-10T14:40:01;9.07;;;9.00;;
9270;SDS011;4673;53.458;9.940;2022-12-10T14:42:30;8.50;;;8.47;;
9270;SDS011;4673;53.458;9.940;2022-12-10T14:44:57;8.67;;;8.67;;
9270;SDS011;4673;53.458;9.940;2022-12-10T14:47:25;9.07;;;9.07;;
9270;SDS011;4673;53.458;9.940;2022-12-10T14:49:52;9.00;;;9.00;;
9270;SDS011;4673;53.458;9.940;2022-12-10T14:52:23;9.70;;;9.70;;
9270;SDS011;4673;53.458;9.940;2022-12-10T14:54:57;8.57;;;8.57;;
9270;SDS011;4673;53.458;9.940;2022-12-10T14:57:28;8.37;;;8.37;;
9270;SDS011;4673;53.458;9.940;2022-12-10T15:02:34;9.63;;;9.53;;
9270;SDS011;4673;53.458;9.940;2022-12-10T15:05:04;8.80;;;8.80;;
9270;SDS011;4673;53.458;9.940;2022-12-10T15:07:41;8.97;;;8.97;;
9270;SDS011;4673;53.458;9.940;2022-12-10T15:10:16;8.63;;;8.63;;
9270;SDS011;4673;53.458;9.940;2022-12-10T15:12:45;9.10;;;9.00;;
9270;SDS011;4673;53.458;9.940;2022-12-10T15:15:19;10.60;;;10.50;;
9270;SDS011;4673;53.458;9.940;2022-12-10T15:23:31;10.17;;;10.07;;
9270;SDS011;4673;53.458;9.940;2022-12-10T15:26:01;10.30;;;10.20;;
9270;SDS011;4673;53.458;9.940;2022-12-10T15:28:40;10.60;;;10.50;;
9270;SDS011;4673;53.458;9.940;2022-12-10T15:31:10;9.70;;;9.60;;
9270;SDS011;4673;53.458;9.940;2022-12-10T15:33:44;8.13;;;8.13;;
9270;SDS011;4673;53.458;9.940;2022-12-10T15:36:16;9.13;;;9.13;;
9270;SDS011;4673;53.458;9.940;2022-12-10T15:38:43;9.07;;;9.07;;
9270;SDS011;4673;53.458;9.940;2022-12-10T15:43:59;9.00;;;9.00;;
9270;SDS011;4673;53.458;9.940;2022-12-10T15:46:27;9.87;;;9.77;;
9270;SDS011;4673;53.458;9.940;2022-12-10T15:48:53;8.63;;;8.63;;
9270;SDS011;4673;53.458;9.940;2022-12-10T15:51:19;8.77;;;8.77;;
9270;SDS011;4673;53.458;9.940;2022-12-10T15:53:44;9.80;;;9.80;;
9270;SDS011;4673;53.458;9.940;2022-12-10T15:56:10;9.97;;;9.87;;
9270;SDS011;4673;53.458;9.940;2022-12-10T15:58:36;9.80;;;9.80;;
9270;SDS011;4673;53.458;9.940;2022-12-10T16:01:01;9.17;;;9.17;;
9270;SDS011;4673;53.458;9.940;2022-12-10T16:03:28;8.20;;;8.20;;
9270;SDS011;4673;53.458;9.940;2022-12-10T16:05:54;10.27;;;10.17;;
9270;SDS011;4673;53.458;9.940;2022-12-10T16:08:24;10.33;;;10.33;;
9270;SDS011;4673;53.458;9.940;2022-12-10T16:10:54;9.53;;;9.53;;
9270;SDS011;4673;53.458;9.940;2022-12-10T16:13:22;11.20;;;11.10;;
9270;SDS011;4673;53.458;9.940;2022-12-10T16:15:54;10.83;;;10.73;;
9270;SDS011;4673;53.458;9.940;2022-12-10T16:18:24;9.37;;;9.37;;
9270;SDS011;4673;53.458;9.940;2022-12-10T16:20:50;10.87;;;10.77;;
9270;SDS011;4673;53.458;9.940;2022-12-10T16:23:16;10.27;;;10.27;;
9270;SDS011;4673;53.458;9.940;2022-12-10T16:25:42;9.87;;;9.87;;
9270;SDS011;4673;53.458;9.940;2022-12-10T16:28:15;8.30;;;8.30;;
9270;SDS011;4673;53.458;9.940;2022-12-10T16:30:43;11.17;;;11.07;;
9270;SDS011;4673;53.458;9.940;2022-12-10T16:33:11;9.80;;;9.80;;
9270;SDS011;4673;53.458;9.940;2022-12-10T16:35:40;10.43;;;10.40;;
9270;SDS011;4673;53.458;9.940;2022-12-10T16:38:07;10.67;;;10.67;;
9270;SDS011;4673;53.458;9.940;2022-12-10T16:40:34;11.77;;;11.67;;
9270;SDS011;4673;53.458;9.940;2022-12-10T16:42:59;12.50;;;12.40;;
9270;SDS011;4673;53.458;9.940;2022-12-10T16:45:27;11.47;;;11.37;;
9270;SDS011;4673;53.458;9.940;2022-12-10T16:47:56;10.23;;;10.13;;
9270;SDS011;4673;53.458;9.940;2022-12-10T16:50:22;10.90;;;10.80;;
9270;SDS011;4673;53.458;9.940;2022-12-10T16:52:48;10.80;;;10.80;;
9270;SDS011;4673;53.458;9.940;2022-12-10T16:55:17;9.40;;;9.40;;
9270;SDS011;4673;53.458;9.940;2022-12-10T17:00:15;10.47;;;10.43;;
9270;SDS011;4673;53.458;9.940;2022-12-10T17:02:42;9.90;;;9.90;;
9270;SDS011;4673;53.458;9.940;2022-12-10T17:05:13;10.57;;;10.57;;
9270;SDS011;4673;53.458;9.940;2022-12-10T17:07:45;10.03;;;10.03;;
9270;SDS011;4673;53.458;9.940;2022-12-10T17:10:12;11.80;;;11.70;;
9270;SDS011;4673;53.458;9.940;2022-12-10T17:12:38;11.13;;;11.03;;
9270;SDS011;4673;53.458;9.940;2022-12-10T17:15:04;9.80;;;9.80;;
9270;SDS011;4673;53.458;9.940;2022-12-10T17:17:33;10.00;;;9.90;;
9270;SDS011;4673;53.458;9.940;2022-12-10T17:19:59;10.90;;;10.87;;
9270;SDS011;4673;53.458;9.940;2022-12-10T17:22:25;9.87;;;9.87;;
9270;SDS011;4673;53.458;9.940;2022-12-10T17:24:50;10.37;;;10.33;;
9270;SDS011;4673;53.458;9.940;2022-12-10T17:27:16;10.33;;;10.27;;
9270;SDS011;4673;53.458;9.940;2022-12-10T17:29:44;9.87;;;9.87;;
9270;SDS011;4673;53.458;9.940;2022-12-10T17:32:17;8.87;;;8.87;;